Time;durP1;ratioP1;P1;durP2;ratioP2;P2;SDS_P1;SDS_P2;PMS_P1;PMS_P2;Temp;Humidity;BMP_temperature;BMP_pressure;BME280_temperature;BME280_humidity;BME280_pressure;Samples;Min_cycle;Max_cycle;Signal;HPM_P1;HPM_P2
2021/01/04 00:01:53;;;;;;;18.90;9.40;;;;;;;2.35;90.31;101839.28;5057767;28;20029;-79
2021/01/04 00:04:37;;;;;;;12.35;7.55;;;;;;;2.35;90.08;101832.56;5057379;28;20025;-78
2021/01/04 00:07:39;;;;;;;17.13;9.77;;;;;;;2.36;90.11;101826.72;5061343;28;20028;-78
2021/01/04 00:10:19;;;;;;;16.37;10.17;;;;;;;2.35;90.05;101819.88;5065595;28;20033;-79
2021/01/04 00:13:24;;;;;;;16.73;9.23;;;;;;;2.35;90.50;101819.00;5064572;28;20031;-79
2021/01/04 00:16:01;;;;;;;18.83;9.53;;;;;;;2.36;90.23;101825.84;5059921;28;20086;-79
2021/01/04 00:18:42;;;;;;;19.17;9.50;;;;;;;2.39;90.58;101808.31;5063941;28;20444;-79
2021/01/04 00:21:29;;;;;;;20.10;9.80;;;;;;;2.34;90.78;101818.13;5061834;28;20043;-79
2021/01/04 00:24:03;;;;;;;;;;;;;;;2.32;90.98;101812.06;5061144;28;20176;-80
2021/01/04 00:26:31;;;;;;;18.00;9.53;;;;;;;2.38;91.02;101804.91;5066855;28;19920;-79
2021/01/04 00:28:57;;;;;;;21.57;10.53;;;;;;;2.36;91.09;101811.50;5063615;28;20025;-79
2021/01/04 00:31:38;;;;;;;20.33;10.80;;;;;;;2.37;90.91;101813.28;5066571;28;20029;-80
2021/01/04 00:34:09;;;;;;;21.00;10.30;;;;;;;2.40;90.91;101805.88;5064186;28;20567;-78
2021/01/04 00:36:47;;;;;;;20.27;10.00;;;;;;;2.39;91.19;101814.25;5060725;28;20025;-79
2021/01/04 00:39:38;;;;;;;19.93;9.90;;;;;;;2.39;90.89;101801.59;5065262;28;20030;-80
2021/01/04 00:42:13;;;;;;;17.77;9.23;;;;;;;2.45;90.69;101798.59;5066013;28;20071;-78
2021/01/04 00:45:06;;;;;;;18.30;10.10;;;;;;;2.41;90.74;101801.69;5062912;28;20063;-78
2021/01/04 00:47:56;;;;;;;18.57;9.43;;;;;;;2.41;91.24;101799.16;5036688;28;20044;-79
2021/01/04 00:50:43;;;;;;;18.90;10.67;;;;;;;2.46;91.00;101795.28;5062593;28;20039;-79
2021/01/04 00:53:29;;;;;;;20.42;10.50;;;;;;;2.43;91.12;101792.53;5060781;28;20055;-79
2021/01/04 00:56:13;;;;;;;18.07;9.10;;;;;;;2.46;91.12;101790.22;5070022;28;20437;-78
2021/01/04 00:58:57;;;;;;;19.53;9.73;;;;;;;2.46;91.03;101783.50;5068043;28;20416;-79
2021/01/04 01:01:47;;;;;;;19.67;9.70;;;;;;;2.48;90.76;101781.06;5070994;28;20031;-78
2021/01/04 01:04:23;;;;;;;17.43;9.67;;;;;;;2.50;90.98;101785.47;5063213;28;20017;-78
2021/01/04 01:07:00;;;;;;;14.00;8.07;;;;;;;2.45;91.19;101779.19;5066756;28;20079;-80
2021/01/04 01:09:29;;;;;;;17.35;9.55;;;;;;;2.48;91.06;101784.47;5060923;28;20044;-79
2021/01/04 01:12:10;;;;;;;21.27;9.63;;;;;;;2.47;91.20;101789.44;5067426;28;20056;-78
2021/01/04 01:15:10;;;;;;;16.67;9.27;;;;;;;2.50;91.70;101793.06;5067860;28;20058;-79
2021/01/04 01:18:03;;;;;;;21.80;10.47;;;;;;;2.41;92.03;101789.91;5065784;28;20047;-81
2021/01/04 01:20:29;;;;;;;17.00;9.80;;;;;;;2.41;91.76;101784.81;5066997;28;20033;-79
2021/01/04 01:22:55;;;;;;;;;;;;;;;2.39;92.48;101793.97;5064739;28;20027;-79
2021/01/04 01:25:29;;;;;;;15.60;7.85;;;;;;;2.42;92.89;101796.72;5065242;28;19958;-78
2021/01/04 01:28:28;;;;;;;16.10;9.50;;;;;;;2.38;92.44;101799.81;5060216;28;20032;-78
2021/01/04 01:31:15;;;;;;;20.97;10.97;;;;;;;2.34;92.64;101791.88;5066748;28;20036;-77
2021/01/04 01:34:09;;;;;;;17.25;9.80;;;;;;;2.30;92.68;101790.78;5061720;28;20035;-78
2021/01/04 01:37:15;;;;;;;15.47;9.93;;;;;;;2.28;93.01;101792.34;5062731;28;20422;-78
2021/01/04 01:40:20;;;;;;;21.43;10.83;;;;;;;2.31;93.02;101792.56;5063145;28;20035;-78
2021/01/04 01:43:06;;;;;;;22.00;10.13;;;;;;;2.28;93.54;101801.59;5065397;28;20028;-79
2021/01/04 01:46:14;;;;;;;17.83;9.93;;;;;;;2.23;93.66;101803.78;5066729;28;20032;-78
2021/01/04 01:49:04;;;;;;;19.88;10.55;;;;;;;2.21;93.45;101807.84;5019333;28;20607;-78
2021/01/04 01:51:52;;;;;;;16.43;9.97;;;;;;;2.23;92.88;101803.78;5063574;28;20052;-78
2021/01/04 01:54:20;;;;;;;17.47;9.50;;;;;;;2.23;93.30;101813.91;5064724;28;20067;-78
2021/01/04 01:57:11;;;;;;;18.70;9.97;;;;;;;2.19;94.03;101797.59;5068602;28;20047;-78
2021/01/04 01:59:45;;;;;;;18.10;10.20;;;;;;;2.17;93.60;101808.41;5062935;28;20056;-78
2021/01/04 02:02:20;;;;;;;16.30;9.80;;;;;;;2.18;93.59;101808.50;5061886;28;20426;-78
2021/01/04 02:05:01;;;;;;;20.30;10.47;;;;;;;2.19;94.11;101806.84;5066160;28;20082;-79
2021/01/04 02:07:36;;;;;;;18.53;10.83;;;;;;;2.19;94.24;101811.94;5066472;28;20098;-79
2021/01/04 02:10:14;;;;;;;15.63;9.83;;;;;;;2.15;93.80;101804.88;5071915;28;20029;-81
2021/01/04 02:13:18;;;;;;;18.83;11.07;;;;;;;2.15;94.30;101803.22;5071014;28;20028;-79
2021/01/04 02:16:02;;;;;;;19.30;10.90;;;;;;;2.16;94.21;101801.56;5065872;28;20094;-80
2021/01/04 02:18:49;;;;;;;20.97;11.50;;;;;;;2.18;94.37;101794.97;5067617;28;20032;-80
2021/01/04 02:21:50;;;;;;;16.40;10.15;;;;;;;2.16;94.38;101801.56;5066426;28;20029;-80
2021/01/04 02:24:26;;;;;;;16.07;9.87;;;;;;;2.15;94.46;101799.81;5064906;28;20029;-79
2021/01/04 02:27:05;;;;;;;20.73;11.07;;;;;;;2.14;94.54;101804.00;5062941;28;20096;-79
2021/01/04 02:29:31;;;;;;;19.50;10.13;;;;;;;2.15;94.60;101805.75;5064971;28;20040;-78
2021/01/04 02:32:00;;;;;;;19.30;11.55;;;;;;;2.12;94.83;101799.59;5067733;28;20021;-79
2021/01/04 02:34:44;;;;;;;15.23;9.60;;;;;;;2.11;94.57;101802.91;5061625;28;20119;-78
2021/01/04 02:37:12;;;;;;;20.20;10.63;;;;;;;2.09;94.50;101801.91;5062831;28;20398;-79
2021/01/04 02:39:57;;;;;;;19.70;10.33;;;;;;;2.07;94.24;101801.78;5062754;28;20025;-79
2021/01/04 02:42:32;;;;;;;17.10;10.07;;;;;;;2.06;94.28;101801.69;5060657;28;20028;-77
2021/01/04 02:45:01;;;;;;;17.37;10.53;;;;;;;2.06;94.52;101794.09;5066010;28;20028;-78
2021/01/04 02:47:47;;;;;;;17.00;10.23;;;;;;;2.05;94.72;101803.34;5065566;28;20516;-77
2021/01/04 02:50:45;;;;;;;15.13;9.47;;;;;;;2.03;94.48;101798.94;5063181;28;20028;-78
2021/01/04 02:53:35;;;;;;;18.73;10.50;;;;;;;2.02;94.48;101794.63;5067767;28;20278;-77
2021/01/04 02:56:16;;;;;;;14.77;9.17;;;;;;;2.03;94.65;101798.94;5064353;28;20031;-76
2021/01/04 02:59:03;;;;;;;21.73;10.57;;;;;;;2.03;94.77;101791.31;5065721;28;20394;-78
2021/01/04 03:01:47;;;;;;;19.38;10.30;;;;;;;2.06;94.65;101794.97;5064302;28;20055;-78
2021/01/04 03:04:15;;;;;;;19.20;10.47;;;;;;;2.02;94.80;101792.97;5065005;28;20039;-77
2021/01/04 03:06:58;;;;;;;20.43;10.37;;;;;;;2.03;94.71;101784.59;5065048;28;20069;-79
2021/01/04 03:09:26;;;;;;;19.20;11.30;;;;;;;2.02;94.51;101792.09;5064247;28;20498;-79
2021/01/04 03:11:51;;;;;;;18.77;10.67;;;;;;;2.00;95.12;101798.72;5064034;28;20098;-78
2021/01/04 03:14:41;;;;;;;18.55;10.93;;;;;;;2.00;94.95;101783.50;5061648;28;20020;-77
2021/01/04 03:17:12;;;;;;;16.77;9.70;;;;;;;2.02;94.82;101792.09;5064528;28;20037;-79
2021/01/04 03:19:41;;;;;;;19.47;11.03;;;;;;;2.00;95.38;101788.56;5065406;28;20124;-77
2021/01/04 03:22:12;;;;;;;18.23;10.97;;;;;;;1.99;95.04;101782.63;5063108;28;20055;-78
2021/01/04 03:24:38;;;;;;;18.67;10.13;;;;;;;2.02;94.80;101790.44;5063006;28;20024;-79
2021/01/04 03:27:11;;;;;;;19.02;10.77;;;;;;;2.02;94.89;101787.03;5064123;28;20505;-79
2021/01/04 03:29:36;;;;;;;16.33;10.23;;;;;;;2.03;94.80;101788.78;5062423;28;20410;-80
2021/01/04 03:32:02;;;;;;;18.73;11.13;;;;;;;2.02;94.48;101784.50;5061124;28;20021;-79
2021/01/04 03:34:28;;;;;;;17.13;9.80;;;;;;;2.02;94.58;101781.97;5063130;28;20039;-78
2021/01/04 03:36:53;;;;;;;15.52;10.15;;;;;;;2.02;94.14;101785.38;5065902;28;20032;-78
2021/01/04 03:39:18;;;;;;;17.63;10.33;;;;;;;2.03;94.08;101784.59;5063504;28;20024;-78
2021/01/04 03:41:44;;;;;;;18.95;11.00;;;;;;;2.02;94.21;101781.97;5060099;28;20267;-79
2021/01/04 03:44:09;;;;;;;17.13;10.23;;;;;;;2.04;93.99;101785.50;5061531;28;20027;-77
2021/01/04 03:46:35;;;;;;;16.73;10.60;;;;;;;2.04;94.41;101780.41;5065778;28;20271;-78
2021/01/04 03:49:00;;;;;;;20.38;11.15;;;;;;;2.01;94.49;101780.19;5071461;28;20025;-80
2021/01/04 03:51:26;;;;;;;19.15;10.90;;;;;;;2.00;94.80;101786.03;5064170;28;20021;-79
2021/01/04 03:53:51;;;;;;;17.00;10.75;;;;;;;1.97;94.91;101778.22;5066418;28;20406;-79
2021/01/04 03:56:18;;;;;;;19.83;11.50;;;;;;;1.97;94.83;101773.16;5067969;28;20111;-81
2021/01/04 03:58:43;;;;;;;18.93;11.50;;;;;;;2.00;94.90;101773.38;5069535;28;20278;-78
2021/01/04 04:01:09;;;;;;;20.65;11.63;;;;;;;2.02;95.04;101770.16;5070005;28;20103;-78
2021/01/04 04:03:34;;;;;;;17.48;10.63;;;;;;;2.02;94.83;101766.75;5066495;28;20497;-78
2021/01/04 04:05:59;;;;;;;17.77;10.70;;;;;;;2.02;94.63;101776.91;5064633;28;20503;-78
2021/01/04 04:08:24;;;;;;;17.00;9.73;;;;;;;2.04;95.07;101770.28;5063989;28;20029;-77
2021/01/04 04:10:50;;;;;;;17.40;10.70;;;;;;;2.08;94.47;101773.16;5064131;28;20108;-78
2021/01/04 04:13:15;;;;;;;20.60;12.37;;;;;;;2.10;94.72;101770.72;5063887;28;20024;-80
2021/01/04 04:15:40;;;;;;;17.17;10.00;;;;;;;2.10;94.30;101769.06;5062928;28;20267;-77
2021/01/04 04:18:05;;;;;;;22.00;12.83;;;;;;;2.11;94.85;101777.56;5066174;28;20133;-79
2021/01/04 04:20:31;;;;;;;25.63;11.87;;;;;;;2.12;94.55;101774.25;5061066;28;20279;-78
2021/01/04 04:22:56;;;;;;;19.67;11.38;;;;;;;2.15;94.06;101775.34;5063157;28;20048;-78
2021/01/04 04:25:24;;;;;;;18.83;11.37;;;;;;;2.12;94.33;101769.19;5062109;28;20052;-79
2021/01/04 04:27:51;;;;;;;16.67;10.23;;;;;;;2.15;94.24;101782.06;5067175;28;20271;-78
2021/01/04 04:30:21;;;;;;;17.73;10.50;;;;;;;2.15;93.93;101775.34;5072181;28;20032;-78
2021/01/04 04:32:50;;;;;;;20.27;11.13;;;;;;;2.19;93.61;101777.31;5060131;28;20025;-78
2021/01/04 04:35:15;;;;;;;18.40;11.13;;;;;;;2.17;93.92;101778.00;5064098;28;20389;-78
2021/01/04 04:37:42;;;;;;;16.88;10.88;;;;;;;2.19;93.86;101773.91;5065656;28;20037;-78
2021/01/04 04:40:32;;;;;;;16.73;10.67;;;;;;;2.20;93.46;101773.13;5069951;28;20031;-77
2021/01/04 04:43:11;;;;;;;17.53;10.10;;;;;;;2.19;93.47;101768.84;5069180;28;20120;-78
2021/01/04 04:45:37;;;;;;;18.00;10.30;;;;;;;2.22;93.27;101771.59;5062543;28;20040;-78
2021/01/04 04:48:11;;;;;;;18.02;10.30;;;;;;;2.19;93.38;101771.38;5064548;28;20421;-80
2021/01/04 04:50:39;;;;;;;17.77;10.60;;;;;;;2.20;93.20;101773.13;5069072;28;20145;-78
2021/01/04 04:53:31;;;;;;;19.13;10.73;;;;;;;2.19;93.30;101779.84;5065711;28;20036;-79
2021/01/04 04:56:25;;;;;;;15.23;9.50;;;;;;;2.22;93.12;101771.59;5065179;28;20665;-77
2021/01/04 04:59:30;;;;;;;16.63;9.77;;;;;;;2.21;92.92;101785.03;5046082;28;20406;-79
2021/01/04 05:02:24;;;;;;;19.77;10.90;;;;;;;2.22;93.24;101775.78;5055030;28;20036;-80
2021/01/04 05:05:02;;;;;;;16.87;10.17;;;;;;;2.20;93.15;101783.28;5067823;28;20081;-80
2021/01/04 05:07:49;;;;;;;16.60;9.47;;;;;;;2.22;93.35;101788.44;5065017;28;20095;-81
2021/01/04 05:10:35;;;;;;;13.13;8.10;;;;;;;2.21;93.29;101782.50;5064146;28;20043;-78
2021/01/04 05:13:23;;;;;;;14.70;8.73;;;;;;;2.18;93.47;101790.78;5068349;28;20037;-79
2021/01/04 05:16:00;;;;;;;16.07;10.17;;;;;;;2.19;93.40;101782.41;5068236;28;20035;-77
2021/01/04 05:18:25;;;;;;;18.30;9.97;;;;;;;2.20;93.29;101793.41;5063387;28;20025;-77
2021/01/04 05:21:13;;;;;;;15.70;9.80;;;;;;;2.20;93.09;101793.41;5066037;28;20047;-78
2021/01/04 05:24:13;;;;;;;;;;;;;;;2.23;92.91;101788.56;5068627;28;20270;-78
2021/01/04 05:26:48;;;;;;;15.77;9.97;;;;;;;2.24;93.06;101785.25;4985533;28;19921;-78
2021/01/04 05:29:39;;;;;;;16.63;9.43;;;;;;;2.23;93.09;101792.75;5053182;28;20563;-80
2021/01/04 05:32:27;;;;;;;16.60;8.73;;;;;;;2.22;92.99;101796.06;5048611;28;20599;-80
2021/01/04 05:34:57;;;;;;;;;;;;;;;2.23;92.87;101797.81;5067033;28;20029;-79
2021/01/04 05:37:59;;;;;;;16.83;8.17;;;;;;;2.20;93.03;101788.34;5069825;28;20397;-77
2021/01/04 05:40:52;;;;;;;13.60;9.47;;;;;;;2.21;92.77;101794.28;5064773;28;20024;-77
2021/01/04 05:43:53;;;;;;;17.03;9.43;;;;;;;2.21;92.74;101799.38;5061029;23;20042;-80
2021/01/04 05:46:31;;;;;;;16.53;9.30;;;;;;;2.22;92.96;101804.53;4975687;28;20030;-78
2021/01/04 05:49:21;;;;;;;14.67;9.23;;;;;;;2.21;92.75;101800.25;5043563;28;20033;-78
2021/01/04 05:51:49;;;;;;;19.53;8.77;;;;;;;2.24;93.13;101795.41;5043518;28;20543;-81
2021/01/04 05:54:25;;;;;;;15.23;8.63;;;;;;;2.22;92.86;101813.81;5026575;28;20036;-81
2021/01/04 05:56:50;;;;;;;15.30;8.97;;;;;;;2.23;92.49;101810.50;5028149;28;20029;-78
2021/01/04 05:59:16;;;;;;;15.13;8.67;;;;;;;2.21;92.92;101810.38;5025730;28;20086;-78
2021/01/04 06:01:43;;;;;;;;;;;;;;;2.22;93.18;101816.34;5024245;28;20627;-77
2021/01/04 06:04:13;;;;;;;15.90;9.10;;;;;;;2.21;92.84;101810.38;5020874;28;19968;-80
2021/01/04 06:06:55;;;;;;;19.63;10.93;;;;;;;2.19;93.12;101820.41;5018756;28;20134;-79
2021/01/04 06:09:22;;;;;;;20.23;9.70;;;;;;;2.19;92.75;101812.81;5025355;28;20515;-79
2021/01/04 06:11:58;;;;;;;22.33;9.80;;;;;;;2.22;92.53;101817.22;5023584;28;20511;-79
2021/01/04 06:14:33;;;;;;;19.52;10.27;;;;;;;2.20;92.87;101818.75;5024188;28;20120;-80
2021/01/04 06:17:05;;;;;;;20.43;9.67;;;;;;;2.21;92.92;101825.59;5026708;28;20028;-80
2021/01/04 06:19:35;;;;;;;20.47;9.83;;;;;;;2.22;93.12;101824.81;5029100;28;20018;-76
2021/01/04 06:22:11;;;;;;;16.47;10.70;;;;;;;2.21;92.98;101827.25;5027029;28;20017;-77
2021/01/04 06:24:39;;;;;;;20.77;9.88;;;;;;;2.21;92.96;101822.19;5027555;28;20402;-80
2021/01/04 06:27:32;;;;;;;17.47;9.93;;;;;;;2.26;92.54;101824.28;5021923;28;20391;-81
2021/01/04 06:30:01;;;;;;;15.80;9.27;;;;;;;2.21;92.81;101817.09;5023580;28;20029;-79
2021/01/04 06:32:30;;;;;;;20.43;10.30;;;;;;;2.21;92.92;101825.59;5025943;28;20026;-77
2021/01/04 06:34:59;;;;;;;19.37;10.30;;;;;;;2.21;92.63;101832.31;5026177;28;20025;-81
2021/01/04 06:37:28;;;;;;;14.77;9.93;;;;;;;2.22;92.35;101829.88;5025356;28;20510;-78
2021/01/04 06:40:02;;;;;;;19.43;10.03;;;;;;;2.25;92.91;101830.09;5032278;28;20033;-78
2021/01/04 06:42:35;;;;;;;17.60;9.63;;;;;;;2.24;92.88;101837.59;5027323;28;20071;-77
2021/01/04 06:45:17;;;;;;;19.63;10.13;;;;;;;2.26;92.75;101834.41;5028343;28;20083;-79
2021/01/04 06:47:47;;;;;;;20.80;10.10;;;;;;;2.27;92.35;101836.16;5019333;28;20022;-81
2021/01/04 06:50:21;;;;;;;15.03;8.30;;;;;;;2.29;91.72;101838.84;5024371;28;20029;-81
2021/01/04 06:53:17;;;;;;;19.67;10.00;;;;;;;2.25;92.38;101841.91;5020718;28;20645;-80
2021/01/04 06:55:58;;;;;;;15.93;9.30;;;;;;;2.29;91.95;101847.34;5028739;28;20025;-78
2021/01/04 06:58:33;;;;;;;17.33;10.10;;;;;;;2.27;92.20;101841.25;5025224;28;20041;-80
2021/01/04 07:01:37;;;;;;;18.70;9.63;;;;;;;2.28;92.12;101837.97;5025680;28;20075;-80
2021/01/04 07:04:21;;;;;;;15.40;9.67;;;;;;;2.28;92.20;101843.03;5051271;28;20032;-79
2021/01/04 07:07:22;;;;;;;17.93;10.17;;;;;;;2.24;92.76;101850.28;5021993;28;20114;-80
2021/01/04 07:10:04;;;;;;;20.17;10.57;;;;;;;2.24;92.67;101853.69;5028372;28;20034;-81
2021/01/04 07:13:04;;;;;;;17.47;10.50;;;;;;;2.23;92.71;101853.59;5048402;28;20049;-79
2021/01/04 07:15:31;;;;;;;16.83;10.23;;;;;;;2.21;93.06;101856.00;5027493;28;20025;-81
2021/01/04 07:18:33;;;;;;;22.00;11.37;;;;;;;2.21;93.18;101850.94;5024742;28;20746;-80
2021/01/04 07:21:07;;;;;;;21.47;9.83;;;;;;;2.22;93.03;101851.81;5026806;28;20022;-81
2021/01/04 07:23:38;;;;;;;21.87;11.77;;;;;;;2.21;93.31;101855.13;5022990;28;20431;-82
2021/01/04 07:26:20;;;;;;;19.50;10.93;;;;;;;2.23;93.07;101854.47;5023922;28;20484;-79
2021/01/04 07:29:23;;;;;;;19.03;11.00;;;;;;;2.23;92.96;101854.47;5026703;28;20026;-82
2021/01/04 07:32:32;;;;;;;17.53;10.10;;;;;;;2.27;92.89;101861.53;5024270;28;20032;-77
2021/01/04 07:35:04;;;;;;;15.73;9.53;;;;;;;2.26;92.76;101862.28;5022365;28;20042;-78
2021/01/04 07:37:46;;;;;;;17.00;10.13;;;;;;;2.26;92.91;101869.91;5027353;28;20034;-79
2021/01/04 07:40:27;;;;;;;17.37;10.37;;;;;;;2.26;93.11;101869.91;5020599;28;20415;-82
2021/01/04 07:43:29;;;;;;;17.43;10.13;;;;;;;2.26;93.13;101874.09;5024925;28;20033;-83
2021/01/04 07:46:17;;;;;;;18.13;10.77;;;;;;;2.22;93.13;101872.97;5024414;28;20090;-79
2021/01/04 07:49:08;;;;;;;17.90;9.10;;;;;;;2.27;93.00;101886.88;4997835;28;20030;-80
2021/01/04 07:51:53;;;;;;;20.57;10.83;;;;;;;2.29;93.61;101870.16;5024137;28;20026;-83
2021/01/04 07:54:55;;;;;;;19.90;10.50;;;;;;;2.24;93.66;101884.13;5025455;28;20491;-78
2021/01/04 07:57:48;;;;;;;22.50;10.67;;;;;;;2.23;93.64;101882.34;5022971;28;20100;-83
2021/01/04 08:00:38;;;;;;;18.83;9.93;;;;;;;2.23;93.66;101876.41;5025939;28;20036;-80
2021/01/04 08:03:03;;;;;;;18.17;9.47;;;;;;;2.26;93.80;101881.69;5029455;28;20025;-82
2021/01/04 08:05:35;;;;;;;20.90;11.23;;;;;;;2.24;93.69;101881.59;5025218;28;20022;-82
2021/01/04 08:08:18;;;;;;;20.43;11.30;;;;;;;2.22;94.13;101893.25;5027007;28;20022;-79
2021/01/04 08:10:43;;;;;;;18.90;10.37;;;;;;;2.22;93.90;101892.38;5028976;28;20089;-80
2021/01/04 08:13:36;;;;;;;17.87;9.87;;;;;;;2.22;94.00;101885.66;5027512;28;20447;-83
2021/01/04 08:16:08;;;;;;;19.03;9.23;;;;;;;2.21;93.87;101900.75;5028909;28;20033;-80
2021/01/04 08:18:36;;;;;;;15.70;9.37;;;;;;;2.25;94.22;101902.75;5030906;28;20029;-79
2021/01/04 08:21:27;;;;;;;20.77;9.67;;;;;;;2.25;93.34;101902.75;5026720;28;20036;-78
2021/01/04 08:24:29;;;;;;;14.43;9.33;;;;;;;2.27;93.37;101919.84;5029372;28;20033;-81
2021/01/04 08:27:07;;;;;;;14.20;8.70;;;;;;;2.26;93.27;101910.47;5028761;28;20466;-81
2021/01/04 08:29:54;;;;;;;16.80;9.33;;;;;;;2.29;93.47;101915.78;5028990;28;20041;-80
2021/01/04 08:32:41;;;;;;;19.03;10.67;;;;;;;2.31;93.56;101918.44;5029395;28;20096;-79
2021/01/04 08:35:38;;;;;;;17.77;10.43;;;;;;;2.31;93.39;101923.50;5030029;28;20029;-78
2021/01/04 08:38:28;;;;;;;15.93;8.53;;;;;;;2.31;93.42;101923.50;5024397;28;20525;-78
2021/01/04 08:41:19;;;;;;;19.77;10.60;;;;;;;2.35;93.23;101936.53;5023894;28;20025;-77
2021/01/04 08:43:46;;;;;;;18.23;10.73;;;;;;;2.35;92.82;101931.44;5016447;28;20037;-78
2021/01/04 08:46:17;;;;;;;18.40;9.30;;;;;;;2.36;92.85;101933.22;5023824;28;20488;-79
2021/01/04 08:48:42;;;;;;;16.10;10.60;;;;;;;2.39;92.70;101930.03;5027093;28;20034;-78
2021/01/04 08:51:28;;;;;;;18.80;9.68;;;;;;;2.41;92.77;101936.97;5028355;28;20021;-78
2021/01/04 08:54:02;;;;;;;15.37;9.20;;;;;;;2.45;92.64;101943.13;5027815;28;20033;-78
2021/01/04 08:56:34;;;;;;;18.33;10.60;;;;;;;2.44;92.78;101936.31;5025700;28;20029;-81
2021/01/04 08:59:07;;;;;;;19.77;11.20;;;;;;;2.40;92.66;101947.88;5023835;28;20108;-79
2021/01/04 09:01:34;;;;;;;16.90;10.67;;;;;;;2.40;92.95;101937.72;5029755;28;20049;-80
2021/01/04 09:04:09;;;;;;;17.43;9.83;;;;;;;2.43;92.48;101953.19;5023070;28;20030;-78
2021/01/04 09:06:40;;;;;;;18.43;9.87;;;;;;;2.44;92.68;101944.78;5022249;28;20036;-80
2021/01/04 09:09:14;;;;;;;20.03;10.37;;;;;;;2.45;93.14;101948.22;5029077;28;20033;-78
2021/01/04 09:11:56;;;;;;;21.83;10.03;;;;;;;2.39;93.39;101948.66;5024111;28;20072;-80
2021/01/04 09:14:32;;;;;;;18.37;9.30;;;;;;;2.38;93.21;101951.06;5017540;28;20065;-79
2021/01/04 09:16:58;;;;;;;17.35;10.50;;;;;;;2.40;93.72;101947.88;5024992;28;20049;-78
2021/01/04 09:19:37;;;;;;;19.38;10.45;;;;;;;2.41;93.70;101956.38;5030985;28;20470;-80
2021/01/04 09:22:12;;;;;;;19.80;10.77;;;;;;;2.43;94.08;101949.75;5024946;28;20652;-79
2021/01/04 09:24:40;;;;;;;18.93;10.43;;;;;;;2.48;93.82;101954.38;5022994;28;20030;-83
2021/01/04 09:27:37;;;;;;;21.77;10.70;;;;;;;2.47;93.61;101947.56;5022630;28;20095;-78
2021/01/04 09:30:07;;;;;;;19.27;9.97;;;;;;;2.47;93.82;101950.09;5020102;28;20440;-78
2021/01/04 09:32:39;;;;;;;18.57;10.53;;;;;;;2.51;93.91;101948.66;5029249;28;20075;-80
2021/01/04 09:35:07;;;;;;;19.20;11.10;;;;;;;2.52;93.38;101952.06;5022887;28;20025;-78
2021/01/04 09:37:36;;;;;;;19.80;9.67;;;;;;;2.51;93.67;101953.72;5022536;28;20476;-80
2021/01/04 09:40:06;;;;;;;21.40;12.00;;;;;;;2.48;93.68;101949.31;5020976;28;20033;-77
2021/01/04 09:42:32;;;;;;;20.17;10.73;;;;;;;2.49;93.51;101950.19;5029532;28;20021;-78
2021/01/04 09:45:12;;;;;;;18.45;9.73;;;;;;;2.52;93.46;101959.69;5025679;28;20034;-78
2021/01/04 09:47:43;;;;;;;19.33;9.93;;;;;;;2.52;93.03;101959.69;5031040;28;20029;-79
2021/01/04 09:50:17;;;;;;;15.63;10.07;;;;;;;2.55;92.62;101957.38;5028195;28;20026;-78
2021/01/04 09:53:05;;;;;;;19.17;10.03;;;;;;;2.58;92.63;101955.94;5022555;28;20030;-77
2021/01/04 09:55:35;;;;;;;18.23;10.00;;;;;;;2.57;92.89;101955.81;5022196;28;20032;-76
2021/01/04 09:58:03;;;;;;;13.60;8.80;;;;;;;2.60;91.96;101961.13;5029471;28;20053;-78
2021/01/04 10:00:33;;;;;;;17.30;9.27;;;;;;;2.62;91.48;101968.09;5029183;28;20018;-77
2021/01/04 10:03:04;;;;;;;16.43;8.83;;;;;;;2.64;91.73;101965.69;5026427;28;20024;-79
2021/01/04 10:05:38;;;;;;;15.63;8.50;;;;;;;2.64;91.38;101965.69;5028765;28;20025;-79
2021/01/04 10:08:08;;;;;;;14.67;8.63;;;;;;;2.63;91.09;101969.00;5029476;28;20040;-79
2021/01/04 10:10:33;;;;;;;13.40;8.33;;;;;;;2.62;91.21;101968.09;5024658;28;20435;-81
2021/01/04 10:13:12;;;;;;;15.07;8.63;;;;;;;2.65;91.30;101975.06;5028639;28;20061;-78
2021/01/04 10:15:40;;;;;;;14.23;8.63;;;;;;;2.63;91.34;101966.44;5026255;28;20033;-78
2021/01/04 10:18:44;;;;;;;16.83;9.13;;;;;;;2.65;91.85;101968.31;5026845;28;20033;-80
2021/01/04 10:21:19;;;;;;;15.50;9.40;;;;;;;2.64;91.22;101970.75;4966778;28;20070;-80
2021/01/04 10:24:25;;;;;;;8.73;6.18;;;;;;;2.71;91.00;101965.34;4966705;28;20069;-79
2021/01/04 10:26:52;;;;;;;13.63;8.20;;;;;;;2.65;91.38;101960.72;5014641;28;20041;-78
2021/01/04 10:29:24;;;;;;;13.87;8.07;;;;;;;2.66;91.77;101959.06;5021805;28;20021;-87
2021/01/04 10:31:52;;;;;;;14.97;8.50;;;;;;;2.65;91.85;101958.19;5021384;28;20143;-77
2021/01/04 10:34:20;;;;;;;15.60;7.40;;;;;;;2.70;91.68;101951.78;5026355;28;20040;-78
2021/01/04 10:37:04;;;;;;;12.20;7.50;;;;;;;2.69;91.21;101959.28;5026645;28;20033;-78
2021/01/04 10:39:34;;;;;;;13.07;7.83;;;;;;;2.74;91.34;101958.84;5021079;28;20101;-78
2021/01/04 10:42:06;;;;;;;11.73;7.00;;;;;;;2.75;91.29;101965.69;5022714;28;20053;-79
2021/01/04 10:44:31;;;;;;;15.33;8.03;;;;;;;2.70;91.66;101964.47;5023121;28;20502;-79
2021/01/04 10:47:15;;;;;;;10.63;6.85;;;;;;;2.72;90.42;101951.91;5021079;28;20148;-81
2021/01/04 10:49:40;;;;;;;11.60;7.60;;;;;;;2.70;91.22;101956.84;5048548;28;20439;-81
2021/01/04 10:52:17;;;;;;;13.05;7.25;;;;;;;2.69;91.33;101949.13;5027568;28;20018;-80
2021/01/04 10:54:43;;;;;;;;;;;;;;;2.70;91.27;101956.84;5021371;28;20040;-80
2021/01/04 10:57:12;;;;;;;14.00;7.70;;;;;;;2.67;91.09;101959.19;5018411;28;19919;-79
2021/01/04 10:59:42;;;;;;;12.27;7.73;;;;;;;2.71;90.82;101956.09;5019848;28;20808;-79
2021/01/04 11:02:08;;;;;;;11.50;7.47;;;;;;;2.70;90.40;101951.78;5025397;28;20021;-83
2021/01/04 11:04:35;;;;;;;11.50;6.72;;;;;;;2.70;90.08;101946.72;5021607;28;20411;-82
2021/01/04 11:07:13;;;;;;;11.80;7.30;;;;;;;2.71;90.42;101942.53;5021353;28;20060;-82
2021/01/04 11:09:41;;;;;;;11.63;6.90;;;;;;;2.68;90.11;101947.38;5025711;28;20033;-77
2021/01/04 11:12:09;;;;;;;12.07;6.73;;;;;;;2.67;90.40;101938.00;5023368;28;20404;-78
2021/01/04 11:14:37;;;;;;;10.83;7.00;;;;;;;2.71;90.42;101939.97;5024033;28;20049;-80
2021/01/04 11:17:21;;;;;;;14.47;7.10;;;;;;;2.66;90.21;101936.22;5020501;28;20091;-81
2021/01/04 11:19:47;;;;;;;12.50;6.17;;;;;;;2.66;90.26;101936.22;5019985;28;20029;-80
2021/01/04 11:22:18;;;;;;;13.88;6.90;;;;;;;2.65;91.03;101926.84;5024525;28;20452;-77
2021/01/04 11:24:43;;;;;;;10.87;5.83;;;;;;;2.64;91.21;101931.06;5025361;28;20504;-80
2021/01/04 11:27:09;;;;;;;11.68;6.18;;;;;;;2.61;91.17;101935.03;5025845;28;20033;-79
2021/01/04 11:29:38;;;;;;;9.85;6.45;;;;;;;2.57;90.60;101930.47;5023460;28;20037;-80
2021/01/04 11:32:04;;;;;;;10.00;6.20;;;;;;;2.55;91.07;101927.81;5025065;28;20030;-79
2021/01/04 11:34:29;;;;;;;10.17;6.30;;;;;;;2.54;91.12;101932.78;5026849;28;20022;-79
2021/01/04 11:36:55;;;;;;;8.47;5.10;;;;;;;2.55;90.16;101914.25;5033287;28;20028;-78
2021/01/04 11:39:22;;;;;;;14.30;6.97;;;;;;;2.59;89.59;101931.47;5020256;28;20279;-81
2021/01/04 11:41:47;;;;;;;11.67;6.80;;;;;;;2.63;89.87;101925.88;5025154;28;20444;-82
2021/01/04 11:44:12;;;;;;;12.07;5.78;;;;;;;2.67;89.80;101918.59;5029155;28;20029;-81
2021/01/04 11:46:38;;;;;;;10.97;6.50;;;;;;;2.69;89.84;101913.63;5024421;28;20071;-81
2021/01/04 11:49:04;;;;;;;11.33;5.93;;;;;;;2.75;89.66;101921.66;5020358;28;20272;-83
2021/01/04 11:51:29;;;;;;;9.52;5.78;;;;;;;2.80;89.40;101920.34;5021434;28;20099;-81
2021/01/04 11:53:54;;;;;;;9.80;5.82;;;;;;;2.76;89.48;101924.31;5023574;28;20025;-78
2021/01/04 11:56:21;;;;;;;9.20;6.27;;;;;;;2.78;89.84;101914.28;5021676;28;20039;-80
2021/01/04 11:58:47;;;;;;;10.97;5.67;;;;;;;2.74;88.58;101918.25;5021422;28;20526;-80
2021/01/04 12:01:13;;;;;;;13.05;6.00;;;;;;;2.65;88.71;101924.31;5023609;28;20034;-80
2021/01/04 12:03:39;;;;;;;10.33;5.43;;;;;;;2.65;88.36;101919.25;5022902;28;20026;-80
2021/01/04 12:06:05;;;;;;;13.95;5.60;;;;;;;2.62;88.24;101924.09;5023327;28;20052;-82
2021/01/04 12:08:31;;;;;;;10.00;5.10;;;;;;;2.60;88.48;101931.59;5021656;28;20048;-82
2021/01/04 12:10:56;;;;;;;9.25;5.65;;;;;;;2.57;88.70;101922.84;5022692;28;20729;-80